Time;durP1;ratioP1;P1;durP2;ratioP2;P2;SDS_P1;SDS_P2;PMS_P1;PMS_P2;Temp;Humidity;BMP_temperature;BMP_pressure;BME280_temperature;BME280_humidity;BME280_pressure;Samples;Min_cycle;Max_cycle;Signal;HPM_P1;HPM_P2
2021/05/01 00:01:22;;;;;;;40.63;36.93;;;7.30;99.90;;;;;;5086361;28;20674;-87
2021/05/01 00:03:48;;;;;;;39.53;35.80;;;7.40;99.90;;;;;;5093538;28;20639;-86
2021/05/01 00:06:16;;;;;;;43.03;39.10;;;7.40;99.90;;;;;;5088606;28;20612;-86
2021/05/01 00:08:42;;;;;;;43.07;39.17;;;7.40;99.90;;;;;;5088050;28;20624;-87
2021/05/01 00:11:09;;;;;;;42.07;38.47;;;7.30;99.90;;;;;;5091449;28;20652;-87
2021/05/01 00:13:36;;;;;;;45.83;41.73;;;7.30;99.90;;;;;;5088371;28;20714;-87
2021/05/01 00:16:04;;;;;;;42.77;38.67;;;7.40;99.90;;;;;;5088453;28;20647;-88
2021/05/01 00:18:30;;;;;;;42.90;39.00;;;7.30;99.90;;;;;;5091344;28;20985;-87
2021/05/01 00:20:57;;;;;;;44.77;40.73;;;7.30;99.90;;;;;;5094215;28;20672;-87
2021/05/01 00:23:24;;;;;;;43.87;40.10;;;7.40;99.90;;;;;;5088444;28;20616;-87
2021/05/01 00:25:51;;;;;;;44.77;40.80;;;7.40;99.90;;;;;;5088655;28;21183;-88
2021/05/01 00:28:17;;;;;;;43.47;39.47;;;7.50;99.90;;;;;;5087263;28;20631;-87
2021/05/01 00:30:43;;;;;;;42.93;39.13;;;7.50;99.90;;;;;;5089301;28;20636;-86
2021/05/01 00:33:10;;;;;;;43.40;39.50;;;7.60;99.90;;;;;;5090976;28;20675;-88
2021/05/01 00:35:36;;;;;;;42.60;38.90;;;7.50;99.90;;;;;;5087730;28;20618;-87
2021/05/01 00:38:03;;;;;;;42.67;38.90;;;7.50;99.90;;;;;;5090650;28;20645;-86
2021/05/01 00:40:30;;;;;;;44.27;40.30;;;7.50;99.90;;;;;;5091328;28;20670;-87
2021/05/01 00:42:57;;;;;;;43.97;39.87;;;7.50;99.90;;;;;;5091955;28;20636;-86
2021/05/01 00:45:24;;;;;;;43.70;39.90;;;7.50;99.90;;;;;;5087332;28;20627;-87
2021/05/01 00:47:50;;;;;;;44.30;40.20;;;7.50;99.90;;;;;;5086695;28;20632;-87
2021/05/01 00:50:17;;;;;;;44.90;40.90;;;7.50;99.90;;;;;;5087379;28;20718;-88
2021/05/01 00:52:43;;;;;;;45.57;41.27;;;7.50;99.90;;;;;;5091955;28;20624;-86
2021/05/01 00:55:11;;;;;;;44.73;40.83;;;7.50;99.90;;;;;;5090977;28;20628;-87
2021/05/01 00:57:41;;;;;;;42.20;38.07;;;7.50;99.90;;;;;;5103903;28;20662;-87
2021/05/01 01:00:14;;;;;;;43.17;39.37;;;7.40;99.90;;;;;;5103433;28;20651;-86
2021/05/01 01:02:43;;;;;;;45.03;41.13;;;7.50;99.90;;;;;;5102511;28;21214;-86
2021/05/01 01:05:10;;;;;;;45.90;41.77;;;7.50;99.90;;;;;;5098392;28;20636;-86
2021/05/01 01:07:36;;;;;;;45.17;41.10;;;7.50;99.90;;;;;;5105957;28;21168;-87
2021/05/01 01:10:03;;;;;;;45.50;41.20;;;7.60;99.90;;;;;;5103492;28;20643;-89
2021/05/01 01:12:29;;;;;;;46.50;42.13;;;7.60;99.90;;;;;;5116895;28;20640;-88
2021/05/01 01:14:59;;;;;;;46.23;42.20;;;7.60;99.90;;;;;;5105596;28;20628;-89
2021/05/01 01:17:26;;;;;;;45.30;41.20;;;7.50;99.90;;;;;;5114753;28;20616;-89
2021/05/01 01:19:53;;;;;;;44.87;40.90;;;7.50;99.90;;;;;;5113363;28;20747;-90
2021/05/01 01:22:24;;;;;;;44.43;40.30;;;7.60;99.90;;;;;;5114894;28;20686;-89
2021/05/01 01:24:50;;;;;;;45.93;41.53;;;7.70;99.90;;;;;;5117909;28;20666;-89
2021/05/01 01:27:18;;;;;;;45.73;41.80;;;7.70;99.90;;;;;;5112253;28;20709;-89
2021/05/01 01:29:44;;;;;;;44.63;40.50;;;7.60;99.90;;;;;;5110097;28;20648;-89
2021/05/01 01:32:13;;;;;;;45.13;41.30;;;7.60;99.90;;;;;;5103010;28;20648;-90
2021/05/01 01:34:43;;;;;;;43.43;39.63;;;7.60;99.90;;;;;;5099805;28;20635;-88
2021/05/01 01:37:10;;;;;;;46.40;42.20;;;7.60;99.90;;;;;;5094623;28;21021;-89
2021/05/01 01:39:37;;;;;;;45.20;41.03;;;7.50;99.90;;;;;;5096118;28;20664;-89
2021/05/01 01:42:05;;;;;;;48.17;43.77;;;7.50;99.90;;;;;;5096724;28;21073;-89
2021/05/01 01:44:35;;;;;;;46.97;42.23;;;7.50;99.90;;;;;;5097834;28;20949;-88
2021/05/01 01:47:02;;;;;;;48.53;43.87;;;7.50;99.90;;;;;;5095487;28;20640;-89
2021/05/01 01:49:29;;;;;;;49.60;44.70;;;7.50;99.90;;;;;;5091776;28;20643;-90
2021/05/01 01:52:04;;;;;;;47.17;42.93;;;7.50;99.90;;;;;;5097287;28;20628;-89
2021/05/01 01:54:35;;;;;;;48.63;44.13;;;7.60;99.90;;;;;;5093874;28;21219;-89
2021/05/01 01:57:03;;;;;;;47.60;43.17;;;7.50;99.90;;;;;;5089773;28;20619;-89
2021/05/01 01:59:30;;;;;;;47.87;43.47;;;7.50;99.90;;;;;;5085275;28;20668;-88
2021/05/01 02:01:57;;;;;;;47.53;42.80;;;7.50;99.90;;;;;;5087209;28;20663;-87
2021/05/01 02:04:23;;;;;;;49.93;45.13;;;7.50;99.90;;;;;;5094993;28;20636;-89
2021/05/01 02:06:50;;;;;;;47.87;43.50;;;7.50;99.90;;;;;;5097566;28;20676;-88
2021/05/01 02:09:20;;;;;;;48.10;43.70;;;7.50;99.90;;;;;;5093794;28;20649;-88
2021/05/01 02:11:46;;;;;;;49.73;45.00;;;7.40;99.90;;;;;;5100430;28;20616;-89
2021/05/01 02:14:13;;;;;;;49.77;45.17;;;7.40;99.90;;;;;;5092493;28;21143;-90
2021/05/01 02:16:40;;;;;;;51.73;46.73;;;7.40;99.90;;;;;;5096807;28;20612;-89
2021/05/01 02:19:06;;;;;;;49.67;44.83;;;7.40;99.90;;;;;;5102518;28;20695;-90
2021/05/01 02:21:33;;;;;;;49.67;44.67;;;7.40;99.90;;;;;;5092394;28;20663;-89
2021/05/01 02:24:00;;;;;;;46.67;42.63;;;7.40;99.90;;;;;;5090290;28;20976;-89
2021/05/01 02:26:27;;;;;;;42.20;38.50;;;7.50;99.90;;;;;;5091847;28;21852;-90
2021/05/01 02:28:54;;;;;;;46.57;41.87;;;7.50;99.90;;;;;;5101388;28;20631;-89
2021/05/01 02:31:21;;;;;;;48.90;44.10;;;7.60;99.90;;;;;;5097159;28;20651;-89
2021/05/01 02:33:48;;;;;;;52.03;47.10;;;7.50;99.90;;;;;;5102187;28;20620;-89
2021/05/01 02:36:14;;;;;;;49.80;44.80;;;7.50;99.90;;;;;;5110953;28;20631;-88
2021/05/01 02:38:41;;;;;;;48.70;44.00;;;7.50;99.90;;;;;;5115288;28;20605;-88
2021/05/01 02:41:07;;;;;;;50.30;45.40;;;7.50;99.90;;;;;;5100180;28;20654;-88
2021/05/01 02:43:34;;;;;;;49.90;45.20;;;7.50;99.90;;;;;;5103938;28;20621;-87
2021/05/01 02:46:02;;;;;;;48.80;44.10;;;7.50;99.90;;;;;;5101127;28;20645;-89
2021/05/01 02:48:30;;;;;;;49.30;44.43;;;7.50;99.90;;;;;;5085543;28;20682;-89
2021/05/01 02:50:57;;;;;;;48.70;44.00;;;7.50;99.90;;;;;;5089859;28;20640;-89
2021/05/01 02:53:24;;;;;;;47.53;43.03;;;7.50;99.90;;;;;;5089871;28;20736;-89
2021/05/01 02:55:50;;;;;;;49.50;44.80;;;7.50;99.90;;;;;;5091778;28;20651;-88
2021/05/01 02:58:17;;;;;;;51.10;46.23;;;7.60;99.90;;;;;;5090260;28;20640;-88
2021/05/01 03:00:43;;;;;;;51.70;46.80;;;7.50;99.90;;;;;;5090982;28;20666;-88
2021/05/01 03:03:09;;;;;;;50.30;45.43;;;7.40;99.90;;;;;;5087401;28;20689;-89
2021/05/01 03:05:37;;;;;;;52.43;47.33;;;7.40;99.90;;;;;;5091326;28;20612;-88
2021/05/01 03:08:03;;;;;;;52.83;47.63;;;7.50;99.90;;;;;;5096281;28;20621;-88
2021/05/01 03:10:30;;;;;;;53.30;48.20;;;7.40;99.90;;;;;;5096901;28;20671;-89
2021/05/01 03:13:00;;;;;;;49.83;45.03;;;7.40;99.90;;;;;;5091507;28;20711;-88
2021/05/01 03:15:26;;;;;;;53.50;48.30;;;7.40;99.90;;;;;;5091248;28;20634;-89
2021/05/01 03:17:53;;;;;;;51.97;46.83;;;7.40;99.90;;;;;;5089152;28;20628;-89
2021/05/01 03:20:20;;;;;;;49.20;44.43;;;7.50;99.90;;;;;;5098773;28;20788;-88
2021/05/01 03:22:48;;;;;;;51.03;46.13;;;7.40;99.90;;;;;;5094625;28;20630;-88
2021/05/01 03:25:17;;;;;;;47.90;43.40;;;7.40;99.90;;;;;;5093069;28;20629;-88
2021/05/01 03:27:44;;;;;;;49.83;45.03;;;7.40;99.90;;;;;;5090009;28;20617;-88
2021/05/01 03:30:12;;;;;;;49.63;44.87;;;7.40;99.90;;;;;;5099385;28;20704;-89
2021/05/01 03:32:41;;;;;;;44.83;40.70;;;7.50;99.90;;;;;;5093303;28;20616;-89
2021/05/01 03:35:09;;;;;;;47.20;42.80;;;7.60;99.90;;;;;;5090704;28;21076;-89
2021/05/01 03:37:36;;;;;;;50.20;45.30;;;7.60;99.90;;;;;;5089048;28;21018;-89
2021/05/01 03:40:04;;;;;;;49.40;44.67;;;7.60;99.90;;;;;;5088929;28;20644;-89
2021/05/01 03:42:31;;;;;;;50.57;45.57;;;7.60;99.90;;;;;;5087950;28;20659;-89
2021/05/01 03:44:57;;;;;;;50.17;45.30;;;7.50;99.90;;;;;;5091210;28;20636;-88
2021/05/01 03:47:23;;;;;;;51.00;46.20;;;7.50;99.90;;;;;;5091242;28;20636;-89
2021/05/01 03:49:50;;;;;;;47.80;43.20;;;7.50;99.90;;;;;;5089657;28;20657;-89
2021/05/01 03:52:16;;;;;;;50.07;45.17;;;7.50;99.90;;;;;;5089059;28;20628;-89
2021/05/01 03:54:43;;;;;;;51.43;46.37;;;7.50;99.90;;;;;;5091566;28;21273;-89
2021/05/01 03:57:10;;;;;;;50.90;46.13;;;7.50;99.90;;;;;;5092696;28;20659;-90
2021/05/01 03:59:37;;;;;;;50.40;45.50;;;7.50;99.90;;;;;;5088317;28;20655;-89
2021/05/01 04:02:04;;;;;;;50.07;45.43;;;7.50;99.90;;;;;;5089250;28;20672;-89
2021/05/01 04:04:31;;;;;;;50.33;45.23;;;7.40;99.90;;;;;;5091439;28;21236;-89
2021/05/01 04:06:57;;;;;;;52.43;47.37;;;7.30;99.90;;;;;;5094960;28;20622;-89
2021/05/01 04:09:23;;;;;;;51.00;46.00;;;7.20;99.90;;;;;;5090758;28;20628;-90
2021/05/01 04:11:49;;;;;;;49.70;44.77;;;7.30;99.90;;;;;;5087255;28;21020;-90
2021/05/01 04:14:17;;;;;;;48.40;43.90;;;7.20;99.90;;;;;;5089371;28;20621;-90
2021/05/01 04:16:44;;;;;;;48.80;43.87;;;7.20;99.90;;;;;;5089164;28;20740;-90
2021/05/01 04:19:10;;;;;;;48.77;43.80;;;7.20;99.90;;;;;;5085011;28;21343;-88
2021/05/01 04:21:36;;;;;;;50.17;45.40;;;7.30;99.90;;;;;;5093443;28;20648;-89
2021/05/01 04:24:03;;;;;;;51.43;46.10;;;7.40;99.90;;;;;;5094728;28;21062;-88
2021/05/01 04:26:30;;;;;;;49.10;44.47;;;7.40;99.90;;;;;;5090821;28;21182;-89
2021/05/01 04:28:58;;;;;;;50.50;45.70;;;7.30;99.90;;;;;;5090399;28;21268;-90
2021/05/01 04:31:25;;;;;;;47.83;43.33;;;7.30;99.90;;;;;;5088518;28;20655;-88
2021/05/01 04:33:52;;;;;;;49.83;45.03;;;7.30;99.90;;;;;;5088199;28;20659;-89
2021/05/01 04:36:21;;;;;;;45.70;41.30;;;7.40;99.90;;;;;;5089592;28;20620;-89
2021/05/01 04:38:47;;;;;;;46.80;41.90;;;7.50;99.90;;;;;;5086381;28;21039;-89
2021/05/01 04:41:13;;;;;;;45.00;40.70;;;7.40;99.90;;;;;;5093652;28;20686;-90
2021/05/01 04:43:42;;;;;;;48.23;43.50;;;7.50;99.90;;;;;;5089806;28;20636;-90
2021/05/01 04:46:08;;;;;;;45.67;41.40;;;7.50;99.90;;;;;;5089303;28;20735;-90
2021/05/01 04:48:35;;;;;;;47.73;43.17;;;7.50;99.90;;;;;;5086178;28;20612;-90
2021/05/01 04:51:03;;;;;;;47.20;42.70;;;7.60;99.90;;;;;;5091400;28;20642;-89
2021/05/01 04:53:32;;;;;;;47.90;43.27;;;7.60;99.90;;;;;;5088131;28;21038;-89
2021/05/01 04:55:58;;;;;;;51.93;47.00;;;7.60;99.90;;;;;;5094081;28;20688;-89
2021/05/01 04:58:24;;;;;;;51.27;46.20;;;7.70;99.90;;;;;;5088341;28;20628;-89
2021/05/01 05:00:51;;;;;;;49.47;44.77;;;7.70;99.90;;;;;;5088204;28;21028;-89
2021/05/01 05:03:21;;;;;;;48.70;44.00;;;7.60;99.90;;;;;;5088301;28;20636;-89
2021/05/01 05:05:48;;;;;;;52.93;48.00;;;7.70;99.90;;;;;;5090912;28;20636;-90
2021/05/01 05:08:15;;;;;;;50.07;45.30;;;7.70;99.90;;;;;;5089233;28;20718;-91
2021/05/01 05:10:42;;;;;;;51.20;46.40;;;7.70;99.90;;;;;;5093754;28;20683;-92
2021/05/01 05:13:08;;;;;;;47.90;43.50;;;7.90;99.90;;;;;;5094197;28;20710;-91
2021/05/01 05:15:34;;;;;;;46.67;42.27;;;8.00;99.90;;;;;;5096501;28;20604;-92
2021/05/01 05:18:02;;;;;;;50.03;45.10;;;8.00;99.90;;;;;;5079334;28;21665;-92
2021/05/01 05:20:30;;;;;;;46.53;42.30;;;8.00;99.90;;;;;;5091144;28;20980;-92
2021/05/01 05:22:57;;;;;;;42.90;38.70;;;7.90;99.90;;;;;;5092184;28;21178;-92
2021/05/01 05:25:24;;;;;;;46.30;41.90;;;7.90;99.90;;;;;;5098915;28;20731;-92
2021/05/01 05:27:52;;;;;;;45.60;41.17;;;7.90;99.90;;;;;;5097116;28;20674;-92
2021/05/01 05:30:19;;;;;;;44.13;40.10;;;7.90;99.90;;;;;;5093218;28;20607;-91
2021/05/01 05:32:46;;;;;;;47.73;42.73;;;8.00;99.90;;;;;;5093920;28;20624;-91
2021/05/01 05:35:13;;;;;;;42.43;38.23;;;8.20;99.90;;;;;;5091859;28;20636;-93
2021/05/01 05:37:41;;;;;;;42.23;38.40;;;8.10;99.90;;;;;;5089680;28;21374;-91
2021/05/01 05:40:10;;;;;;;41.63;37.33;;;8.20;99.90;;;;;;5092012;28;20638;-92
2021/05/01 05:42:44;;;;;;;40.20;36.40;;;8.30;99.90;;;;;;5094551;28;20660;-92
2021/05/01 05:45:12;;;;;;;41.00;36.90;;;8.40;99.90;;;;;;5089065;28;20639;-90
2021/05/01 05:47:38;;;;;;;38.93;35.13;;;8.60;99.90;;;;;;5094902;28;20624;-91
2021/05/01 05:50:05;;;;;;;37.40;33.90;;;8.60;99.90;;;;;;5093362;28;20667;-91
2021/05/01 05:52:34;;;;;;;36.27;32.70;;;8.80;99.90;;;;;;5098339;28;20636;-92
2021/05/01 05:55:01;;;;;;;36.50;32.97;;;8.80;99.90;;;;;;5103353;28;20638;-92
2021/05/01 05:57:36;;;;;;;34.60;31.30;;;9.00;99.90;;;;;;5117380;28;20695;-91
2021/05/01 06:00:05;;;;;;;32.33;29.53;;;8.90;99.90;;;;;;5100645;28;21169;-91
2021/05/01 06:02:34;;;;;;;32.30;29.30;;;8.90;99.90;;;;;;5099932;28;20616;-92
2021/05/01 06:05:03;;;;;;;33.30;30.13;;;9.00;99.90;;;;;;5096570;28;20635;-91
2021/05/01 06:07:34;;;;;;;29.10;26.20;;;9.20;99.90;;;;;;5097628;28;20604;-93
2021/05/01 06:10:05;;;;;;;26.23;23.83;;;9.10;99.90;;;;;;5099054;28;20639;-93
2021/05/01 06:12:38;;;;;;;27.27;24.67;;;9.00;99.90;;;;;;5099759;28;20638;-92
2021/05/01 06:15:08;;;;;;;26.80;24.30;;;9.10;99.90;;;;;;5098067;28;20616;-92
2021/05/01 06:17:36;;;;;;;27.97;25.23;;;9.10;99.90;;;;;;5095257;28;21166;-92
2021/05/01 06:20:05;;;;;;;24.47;22.07;;;9.10;99.90;;;;;;5098942;28;20613;-92
2021/05/01 06:22:32;;;;;;;26.83;24.03;;;9.00;99.90;;;;;;5098204;28;20662;-92
2021/05/01 06:25:01;;;;;;;25.67;23.27;;;9.00;99.90;;;;;;5099145;28;20728;-94
2021/05/01 06:27:28;;;;;;;26.67;24.13;;;9.10;99.90;;;;;;5098322;28;20632;-92
2021/05/01 06:29:55;;;;;;;29.63;26.73;;;9.10;99.90;;;;;;5096203;28;21323;-93
2021/05/01 06:32:23;;;;;;;28.40;25.70;;;9.30;99.90;;;;;;5095173;28;21150;-91
2021/05/01 06:34:52;;;;;;;20.27;16.07;;;9.40;99.90;;;;;;5098806;28;20624;-93
2021/05/01 06:37:20;;;;;;;24.97;22.60;;;9.40;99.90;;;;;;5095560;28;21287;-94
2021/05/01 06:39:48;;;;;;;23.40;21.20;;;9.40;99.90;;;;;;5095158;28;20723;-93
2021/05/01 06:42:27;;;;;;;24.77;22.40;;;9.60;99.90;;;;;;5094341;28;20667;-92
2021/05/01 06:45:01;;;;;;;22.23;20.23;;;9.60;99.90;;;;;;5093826;28;20636;-93
2021/05/01 06:47:31;;;;;;;23.63;21.40;;;9.20;99.90;;;;;;5090618;28;20608;-93
2021/05/01 06:50:06;;;;;;;23.37;21.30;;;9.30;99.90;;;;;;5095702;27;20623;-93
2021/05/01 06:52:37;;;;;;;23.40;21.23;;;9.10;99.90;;;;;;5092450;28;20647;-92
2021/05/01 06:55:07;;;;;;;23.77;21.23;;;9.10;99.90;;;;;;5091839;28;20628;-92
2021/05/01 06:57:35;;;;;;;22.90;20.70;;;9.20;99.90;;;;;;5096593;28;20683;-94
2021/05/01 07:00:08;;;;;;;17.70;14.93;;;9.20;99.90;;;;;;5094723;28;20635;-92
2021/05/01 07:02:43;;;;;;;19.63;14.87;;;9.30;99.90;;;;;;5100113;28;20658;-93
2021/05/01 07:05:17;;;;;;;19.30;16.37;;;9.50;99.90;;;;;;5094068;28;20746;-92
2021/05/01 07:07:53;;;;;;;20.77;18.30;;;9.40;99.90;;;;;;5095906;28;20681;-93
2021/05/01 07:10:19;;;;;;;16.33;14.03;;;9.50;99.90;;;;;;5095038;28;20650;-93
2021/05/01 07:12:48;;;;;;;21.60;19.70;;;9.40;99.90;;;;;;5092734;28;20654;-94
2021/05/01 07:15:16;;;;;;;20.27;18.30;;;9.40;99.90;;;;;;5093397;28;20937;-92
2021/05/01 07:17:51;;;;;;;23.93;21.93;;;9.60;99.90;;;;;;5094423;28;20668;-93
2021/05/01 07:20:18;;;;;;;23.87;21.67;;;9.60;99.90;;;;;;5095209;28;20615;-92
2021/05/01 07:22:46;;;;;;;20.53;18.57;;;9.60;99.90;;;;;;5099571;28;20751;-93
2021/05/01 07:25:24;;;;;;;22.50;20.47;;;9.70;99.90;;;;;;5099837;28;21218;-93
2021/05/01 07:27:54;;;;;;;23.80;21.63;;;10.00;99.90;;;;;;5097572;28;20648;-94
2021/05/01 07:30:27;;;;;;;22.77;20.67;;;10.00;99.90;;;;;;5096689;28;21146;-94
2021/05/01 07:33:00;;;;;;;20.67;18.37;;;10.00;99.90;;;;;;5096305;28;21159;-94
2021/05/01 07:35:42;;;;;;;24.03;21.87;;;9.90;99.90;;;;;;5094374;28;21087;-93
2021/05/01 07:38:13;;;;;;;18.00;16.10;;;10.00;99.90;;;;;;5091444;28;20683;-93
2021/05/01 07:40:40;;;;;;;25.27;22.83;;;10.00;99.90;;;;;;5097214;28;20709;-93
2021/05/01 07:43:07;;;;;;;23.90;21.80;;;10.20;99.90;;;;;;5097853;28;20628;-92
2021/05/01 07:45:35;;;;;;;23.97;21.67;;;10.00;99.90;;;;;;5096552;28;20640;-94
2021/05/01 07:48:11;;;;;;;25.17;23.07;;;9.90;99.90;;;;;;5095059;28;20654;-92
2021/05/01 07:50:38;;;;;;;25.90;23.50;;;9.80;99.90;;;;;;5090804;28;20632;-92
2021/05/01 07:53:04;;;;;;;24.63;22.57;;;9.90;99.90;;;;;;5095246;28;21189;-91
2021/05/01 07:55:33;;;;;;;26.57;24.17;;;9.90;99.90;;;;;;5091199;28;20631;-93
2021/05/01 07:57:59;;;;;;;27.27;24.77;;;9.90;99.90;;;;;;5091978;28;20751;-93
2021/05/01 08:00:32;;;;;;;29.40;26.87;;;10.00;99.90;;;;;;5097070;28;20659;-92
2021/05/01 08:03:00;;;;;;;32.20;29.10;;;9.70;99.90;;;;;;5097466;28;20657;-92
2021/05/01 08:05:34;;;;;;;30.20;27.47;;;9.80;99.90;;;;;;5096879;28;20660;-92
2021/05/01 08:08:07;;;;;;;30.80;27.90;;;10.00;99.90;;;;;;5094850;28;20686;-92
2021/05/01 08:10:35;;;;;;;27.00;22.00;;;10.00;99.90;;;;;;5089975;28;20769;-92
2021/05/01 08:13:07;;;;;;;30.13;27.20;;;10.10;99.90;;;;;;5094018;28;20624;-92
2021/05/01 08:15:34;;;;;;;30.23;27.23;;;9.80;99.90;;;;;;5094057;28;20634;-93
2021/05/01 08:18:17;;;;;;;30.47;27.67;;;9.80;99.90;;;;;;5095947;28;21217;-94
2021/05/01 08:20:49;;;;;;;28.43;25.87;;;10.00;99.90;;;;;;5097676;28;20710;-92
2021/05/01 08:23:22;;;;;;;29.87;27.07;;;10.00;99.90;;;;;;5105373;28;21171;-92
2021/05/01 08:25:52;;;;;;;31.20;28.50;;;10.10;99.90;;;;;;5097429;28;21579;-94
2021/05/01 08:28:18;;;;;;;28.37;25.60;;;9.90;99.90;;;;;;5094067;28;20656;-93
2021/05/01 08:31:03;;;;;;;30.83;28.13;;;10.00;99.90;;;;;;5093624;28;20629;-92
2021/05/01 08:33:31;;;;;;;26.33;23.90;;;10.00;99.90;;;;;;5094366;28;20751;-92
2021/05/01 08:36:02;;;;;;;30.17;27.43;;;10.00;99.90;;;;;;5095706;28;21225;-92
2021/05/01 08:38:32;;;;;;;30.47;27.77;;;10.00;99.90;;;;;;5093709;28;20671;-91
2021/05/01 08:40:59;;;;;;;28.43;26.03;;;10.30;99.90;;;;;;5098700;28;20985;-91
2021/05/01 08:43:29;;;;;;;29.40;26.70;;;10.10;99.90;;;;;;5094978;28;20624;-91
2021/05/01 08:45:59;;;;;;;27.83;25.17;;;10.20;99.90;;;;;;5099893;28;20643;-92
2021/05/01 08:48:26;;;;;;;27.80;25.30;;;10.30;99.90;;;;;;5096753;28;20767;-91
2021/05/01 08:50:58;;;;;;;32.07;29.00;;;10.40;99.90;;;;;;5104018;28;20657;-91
2021/05/01 08:53:27;;;;;;;29.23;26.53;;;10.50;99.90;;;;;;5088540;28;21328;-90
2021/05/01 08:55:54;;;;;;;32.53;29.50;;;10.30;99.90;;;;;;5092376;28;20715;-90
2021/05/01 08:58:27;;;;;;;31.03;28.07;;;10.50;99.90;;;;;;5093564;28;20739;-90
2021/05/01 09:00:54;;;;;;;32.60;29.60;;;10.70;99.90;;;;;;5096577;28;20704;-92
2021/05/01 09:03:31;;;;;;;25.50;22.10;;;10.70;99.90;;;;;;5096680;28;20647;-91
2021/05/01 09:06:00;;;;;;;27.53;25.10;;;10.80;99.90;;;;;;5105366;28;20631;-91
2021/05/01 09:08:30;;;;;;;25.30;21.90;;;10.90;99.90;;;;;;5098128;28;21230;-92
2021/05/01 09:11:03;;;;;;;22.27;19.90;;;10.80;99.90;;;;;;5090649;28;20655;-92
2021/05/01 09:13:30;;;;;;;27.10;24.57;;;11.10;99.90;;;;;;5104007;28;20631;-92
2021/05/01 09:16:02;;;;;;;28.40;25.80;;;11.10;99.90;;;;;;5102525;28;20655;-91
2021/05/01 09:18:42;;;;;;;25.03;19.63;;;11.20;99.90;;;;;;5106558;28;20738;-90
2021/05/01 09:21:16;;;;;;;21.73;19.50;;;11.10;99.90;;;;;;5097283;28;21185;-91
2021/05/01 09:23:45;;;;;;;25.63;20.20;;;11.00;99.90;;;;;;5100006;28;20654;-93
2021/05/01 09:26:12;;;;;;;23.90;21.30;;;11.20;99.90;;;;;;5112312;28;20718;-91
2021/05/01 09:28:50;;;;;;;21.93;19.40;;;11.20;99.90;;;;;;5103437;28;20674;-91
2021/05/01 09:31:20;;;;;;;23.50;21.20;;;11.10;99.90;;;;;;5105300;28;20619;-91
2021/05/01 09:33:53;;;;;;;24.73;21.43;;;11.20;99.90;;;;;;5110963;28;20588;-91
2021/05/01 09:36:32;;;;;;;22.60;20.10;;;11.20;99.90;;;;;;5119889;28;21272;-91
2021/05/01 09:39:11;;;;;;;24.60;21.93;;;10.90;99.90;;;;;;5117053;28;20655;-91
2021/05/01 09:41:49;;;;;;;24.70;20.50;;;11.10;99.90;;;;;;5118173;28;20757;-92
2021/05/01 09:44:23;;;;;;;23.80;21.23;;;11.00;99.90;;;;;;5118758;28;20766;-91
2021/05/01 09:46:53;;;;;;;20.57;18.53;;;11.00;99.90;;;;;;5114753;28;20658;-92
2021/05/01 09:49:22;;;;;;;23.73;21.47;;;11.20;99.90;;;;;;5115568;28;20655;-90
2021/05/01 09:51:54;;;;;;;25.10;22.80;;;11.20;99.90;;;;;;5108974;28;20679;-91
2021/05/01 09:54:26;;;;;;;25.30;23.10;;;11.60;99.90;;;;;;5116392;28;20596;-91
2021/05/01 09:56:57;;;;;;;25.83;23.43;;;11.70;99.90;;;;;;5116862;28;20864;-91
2021/05/01 09:59:42;;;;;;;24.87;22.70;;;12.00;99.90;;;;;;5116750;28;20658;-91
2021/05/01 10:02:11;;;;;;;23.77;21.63;;;12.20;99.90;;;;;;5108407;28;20655;-90
2021/05/01 10:05:01;;;;;;;26.97;24.37;;;12.00;99.90;;;;;;5123298;28;20607;-92
2021/05/01 10:07:28;;;;;;;26.93;21.20;;;11.80;99.90;;;;;;5110547;28;20627;-91
2021/05/01 10:09:59;;;;;;;23.93;19.60;;;11.60;99.90;;;;;;5113840;28;20743;-91
2021/05/01 10:12:35;;;;;;;25.07;20.27;;;11.40;99.90;;;;;;5125592;28;20626;-90
2021/05/01 10:15:14;;;;;;;29.20;26.27;;;11.40;99.90;;;;;;5103011;28;20722;-91
2021/05/01 10:17:54;;;;;;;27.30;22.80;;;11.40;99.90;;;;;;5112561;28;20620;-91
2021/05/01 10:20:34;;;;;;;28.27;25.57;;;11.40;99.90;;;;;;5113769;28;20712;-90
2021/05/01 10:23:02;;;;;;;25.10;22.50;;;11.30;99.90;;;;;;5112409;28;20660;-92
2021/05/01 10:25:34;;;;;;;31.13;28.33;;;11.20;99.90;;;;;;5108000;28;20685;-90
2021/05/01 10:28:04;;;;;;;28.93;26.33;;;11.40;99.90;;;;;;5109262;28;20659;-90
2021/05/01 10:30:35;;;;;;;30.13;27.50;;;11.20;99.90;;;;;;5103004;28;20646;-91
2021/05/01 10:33:13;;;;;;;28.27;25.53;;;11.80;99.90;;;;;;5112682;28;20622;-91
2021/05/01 10:35:47;;;;;;;24.77;21.70;;;11.60;99.90;;;;;;5111695;28;20650;-89
2021/05/01 10:38:18;;;;;;;25.83;23.23;;;11.90;99.90;;;;;;5110876;28;20677;-91
2021/05/01 10:40:52;;;;;;;26.93;24.53;;;11.90;99.90;;;;;;5113000;28;20588;-90
2021/05/01 10:43:20;;;;;;;28.20;25.53;;;11.70;99.90;;;;;;5114086;28;21197;-91
2021/05/01 10:45:51;;;;;;;27.37;24.77;;;11.60;99.90;;;;;;5111588;28;20635;-90
2021/05/01 10:48:18;;;;;;;24.80;21.50;;;11.70;99.90;;;;;;5108786;28;20643;-91
2021/05/01 10:50:45;;;;;;;23.23;20.60;;;11.70;99.90;;;;;;5107474;28;20640;-90
2021/05/01 10:53:20;;;;;;;23.90;21.50;;;11.80;99.90;;;;;;5112647;28;20588;-91
2021/05/01 10:55:49;;;;;;;27.27;24.83;;;11.80;99.90;;;;;;5106154;28;20679;-90
2021/05/01 10:58:35;;;;;;;25.03;22.53;;;12.00;99.90;;;;;;5102273;28;20751;-91
2021/05/01 11:01:08;;;;;;;24.73;22.13;;;11.90;99.90;;;;;;5104035;28;20632;-92
2021/05/01 11:03:43;;;;;;;23.77;21.27;;;11.80;99.90;;;;;;5099660;28;20627;-91
2021/05/01 11:06:20;;;;;;;24.73;22.23;;;11.80;99.90;;;;;;5103351;28;20628;-91
2021/05/01 11:08:56;;;;;;;26.07;23.30;;;11.70;99.90;;;;;;5101651;28;20788;-90
2021/05/01 11:11:28;;;;;;;25.97;23.37;;;11.50;99.90;;;;;;5101032;28;20663;-90
2021/05/01 11:13:58;;;;;;;24.27;21.70;;;11.90;99.90;;;;;;5101142;28;20624;-91
2021/05/01 11:16:37;;;;;;;24.97;22.47;;;11.60;99.90;;;;;;5103521;28;20585;-89
2021/05/01 11:19:06;;;;;;;26.20;22.00;;;11.70;99.90;;;;;;5113912;28;21530;-90
2021/05/01 11:21:36;;;;;;;28.03;25.33;;;11.70;99.90;;;;;;5108381;28;20651;-90
2021/05/01 11:24:04;;;;;;;30.63;27.87;;;11.60;99.90;;;;;;5098513;28;20633;-90
2021/05/01 11:26:32;;;;;;;28.47;26.00;;;11.40;99.90;;;;;;5112269;27;20628;-90
2021/05/01 11:29:02;;;;;;;28.90;26.20;;;11.60;99.90;;;;;;5108155;28;20661;-90
2021/05/01 11:31:29;;;;;;;27.87;25.27;;;11.90;99.90;;;;;;5101040;28;20658;-91
2021/05/01 11:33:58;;;;;;;26.37;21.17;;;11.80;99.90;;;;;;5091612;28;20644;-90
2021/05/01 11:36:31;;;;;;;25.00;22.50;;;11.90;99.90;;;;;;5096182;28;21171;-91
2021/05/01 11:38:59;;;;;;;29.00;26.07;;;11.80;99.90;;;;;;5095202;28;20646;-90
2021/05/01 11:41:27;;;;;;;29.13;26.57;;;12.00;99.90;;;;;;5095170;28;20667;-90
2021/05/01 11:43:55;;;;;;;29.93;27.23;;;12.20;99.90;;;;;;5097808;28;20639;-92
2021/05/01 11:46:28;;;;;;;27.43;24.80;;;12.30;99.90;;;;;;5091737;28;20650;-90
2021/05/01 11:49:01;;;;;;;28.47;25.47;;;12.30;99.90;;;;;;5088809;28;20663;-91
2021/05/01 11:51:46;;;;;;;25.33;22.60;;;12.50;99.90;;;;;;5088696;28;20616;-91
2021/05/01 11:54:24;;;;;;;29.40;26.60;;;12.30;99.90;;;;;;5087930;28;20744;-91
2021/05/01 11:57:07;;;;;;;24.90;22.30;;;12.50;99.90;;;;;;5092247;28;20637;-90
2021/05/01 11:59:46;;;;;;;30.70;27.80;;;12.50;99.90;;;;;;5090456;28;20632;-91
2021/05/01 12:02:15;;;;;;;26.10;23.47;;;12.70;99.90;;;;;;5090435;28;20632;-90
2021/05/01 12:04:58;;;;;;;27.07;24.17;;;12.60;99.90;;;;;;5099071;28;20599;-90
2021/05/01 12:07:30;;;;;;;28.37;25.63;;;12.70;99.90;;;;;;5087306;28;20639;-90
2021/05/01 12:10:04;;;;;;;25.93;23.40;;;13.10;99.90;;;;;;5096925;28;20640;-90
2021/05/01 12:12:33;;;;;;;26.63;24.23;;;13.20;99.90;;;;;;5091491;28;20635;-91
2021/05/01 12:15:06;;;;;;;25.27;22.70;;;13.50;99.90;;;;;;5086044;28;20624;-91
2021/05/01 12:17:37;;;;;;;26.60;23.90;;;13.70;99.90;;;;;;5085199;28;21004;-91
2021/05/01 12:20:19;;;;;;;29.60;26.70;;;13.90;99.90;;;;;;5092630;28;20618;-91
2021/05/01 12:22:46;;;;;;;27.40;24.80;;;13.70;99.90;;;;;;5092142;28;21094;-91
2021/05/01 12:25:33;;;;;;;27.30;24.60;;;13.70;99.90;;;;;;5088972;28;20739;-90
2021/05/01 12:28:00;;;;;;;25.07;22.47;;;13.40;99.90;;;;;;5096357;28;20660;-91
2021/05/01 12:30:49;;;;;;;27.30;23.27;;;13.20;99.90;;;;;;5091346;28;21042;-90
2021/05/01 12:33:52;;;;;;;26.63;22.70;;;13.00;99.90;;;;;;5088119;28;20714;-90
2021/05/01 12:36:34;;;;;;;26.80;24.37;;;12.70;99.90;;;;;;5090582;28;20642;-90
2021/05/01 12:39:01;;;;;;;32.20;29.30;;;12.90;99.90;;;;;;5093570;28;20655;-91
2021/05/01 12:41:34;;;;;;;28.23;25.77;;;13.10;99.90;;;;;;5087762;28;20635;-91
2021/05/01 12:44:03;;;;;;;29.70;27.10;;;13.50;99.90;;;;;;5092756;28;20633;-90
2021/05/01 12:46:44;;;;;;;25.43;22.73;;;13.20;99.90;;;;;;5091019;28;21407;-91